Terminal Aerodrome Forecast
Issued by NWS Charleston, SC

Home | Current Version | Previous Version | Text Only | Print | Product List | Glossary On
Versions: 1 2 3 4 5 6 7 8 9 10 11 12 13 14 15 16 17 18 19 20 21 22 23 24 25 26 27 28 29 30 31 32
000
FTUS42 KCHS 031128
TAFSAV
TAF
KSAV 031128Z 0312/0412 21008KT P6SM FEW020 SCT040
     FM031600 24012G18KT P6SM SCT020 BKN080
      TEMPO 0321/0324 4SM -TSRA BR SCT020 BKN060CB
     FM040200 22005KT P6SM SCT060 BKN100=

USA.gov is the U.S. government's official web portal to all federal, state and local government web resources and services.